createdAt,value
2023-04-03T00:01:12.921Z,5.10
2023-04-03T00:03:43.292Z,5.10
2023-04-03T00:06:12.788Z,5.10
2023-04-03T00:08:42.200Z,5.10
2023-04-03T00:11:10.613Z,5.10
2023-04-03T00:13:39.304Z,5.00
2023-04-03T00:16:08.331Z,5.00
2023-04-03T00:18:38.137Z,5.00
2023-04-03T00:21:07.229Z,5.00
2023-04-03T00:23:35.940Z,5.00
2023-04-03T00:26:04.082Z,5.00
2023-04-03T00:28:32.088Z,5.00
2023-04-03T00:31:00.682Z,5.00
2023-04-03T00:33:28.616Z,5.00
2023-04-03T00:35:58.102Z,5.00
2023-04-03T00:38:25.986Z,5.00
2023-04-03T00:40:53.959Z,5.00
2023-04-03T00:43:24.270Z,5.00
2023-04-03T00:45:53.769Z,4.90
2023-04-03T00:48:24.767Z,4.90
2023-04-03T00:50:53.896Z,4.90
2023-04-03T00:53:27.817Z,4.90
2023-04-03T00:55:57.579Z,4.90
2023-04-03T00:58:35.480Z,4.80
2023-04-03T01:01:08.468Z,4.80
2023-04-03T01:03:36.817Z,4.70
2023-04-03T01:06:05.724Z,4.70
2023-04-03T01:08:35.173Z,4.70
2023-04-03T01:11:03.088Z,4.60
2023-04-03T01:13:32.853Z,4.60
2023-04-03T01:16:03.550Z,4.50
2023-04-03T01:18:33.077Z,4.50
2023-04-03T01:21:30.802Z,4.50
2023-04-03T01:24:13.725Z,4.40
2023-04-03T01:26:41.725Z,4.40
2023-04-03T01:29:09.601Z,4.30
2023-04-03T01:31:53.741Z,4.20
2023-04-03T01:34:22.057Z,4.20
2023-04-03T01:36:49.964Z,4.20
2023-04-03T01:39:17.963Z,4.20
2023-04-03T01:41:46.642Z,4.10
2023-04-03T01:44:14.666Z,4.10
2023-04-03T01:46:43.368Z,4.10
2023-04-03T01:49:12.647Z,4.10
2023-04-03T01:51:40.495Z,4.00
2023-04-03T01:54:08.491Z,4.00
2023-04-03T01:56:36.773Z,4.00
2023-04-03T01:59:04.776Z,4.00
2023-04-03T02:01:32.697Z,3.90
2023-04-03T02:04:00.631Z,3.90
2023-04-03T02:06:29.944Z,3.90
2023-04-03T02:08:57.890Z,3.90
2023-04-03T02:11:25.813Z,3.90
2023-04-03T02:13:53.715Z,3.90
2023-04-03T02:16:21.728Z,3.90
2023-04-03T02:18:49.712Z,3.80
2023-04-03T02:21:17.663Z,3.80
2023-04-03T02:23:47.087Z,3.80
2023-04-03T02:26:17.929Z,3.80
2023-04-03T02:28:48.107Z,3.70
2023-04-03T02:31:16.232Z,3.70
2023-04-03T02:33:44.200Z,3.70
2023-04-03T02:36:12.165Z,3.70
2023-04-03T02:38:40.111Z,3.60
2023-04-03T02:41:14.270Z,3.60
2023-04-03T02:43:42.261Z,3.60
2023-04-03T02:46:10.531Z,3.50
2023-04-03T02:48:38.890Z,3.50
2023-04-03T02:51:07.057Z,3.50
2023-04-03T02:53:34.972Z,3.50
2023-04-03T02:56:02.992Z,3.40
2023-04-03T02:58:32.276Z,3.40
2023-04-03T03:01:00.206Z,3.40
2023-04-03T03:03:28.087Z,3.30
2023-04-03T03:06:04.026Z,3.30
2023-04-03T03:08:31.900Z,3.30
2023-04-03T03:11:00.320Z,3.20
2023-04-03T03:13:29.368Z,3.20
2023-04-03T03:15:59.131Z,3.20
2023-04-03T03:18:27.074Z,3.20
2023-04-03T03:20:55.481Z,3.10
2023-04-03T03:23:25.404Z,3.10
2023-04-03T03:25:57.189Z,3.10
2023-04-03T03:28:25.270Z,3.00
2023-04-03T03:30:53.450Z,3.00
2023-04-03T03:33:22.617Z,3.00
2023-04-03T03:35:50.894Z,3.00
2023-04-03T03:38:18.843Z,2.90
2023-04-03T03:40:46.909Z,2.90
2023-04-03T03:43:14.785Z,2.90
2023-04-03T03:45:42.747Z,2.90
2023-04-03T03:48:11.359Z,2.90
2023-04-03T03:50:40.914Z,2.80
2023-04-03T03:53:08.912Z,2.80
2023-04-03T03:55:37.064Z,2.80
2023-04-03T03:58:06.605Z,2.80
2023-04-03T04:00:34.536Z,2.80
2023-04-03T04:03:02.585Z,2.80
2023-04-03T04:05:30.538Z,2.80
2023-04-03T04:08:00.139Z,2.80
2023-04-03T04:10:28.150Z,2.70
2023-04-03T04:12:58.447Z,2.70
2023-04-03T04:15:26.798Z,2.70
2023-04-03T04:17:54.949Z,2.70
2023-04-03T04:20:23.317Z,2.70
2023-04-03T04:22:51.306Z,2.70
2023-04-03T04:25:20.761Z,2.60
2023-04-03T04:27:48.885Z,2.60
2023-04-03T04:30:16.889Z,2.60
2023-04-03T04:32:44.895Z,2.60
2023-04-03T04:35:15.358Z,2.60
2023-04-03T04:37:44.668Z,2.60
2023-04-03T04:40:13.291Z,2.50
2023-04-03T04:42:42.552Z,2.50
2023-04-03T04:45:11.123Z,2.50
2023-04-03T04:47:39.204Z,2.50
2023-04-03T04:50:08.162Z,2.40
2023-04-03T04:52:36.038Z,2.50
2023-04-03T04:55:04.139Z,2.40
2023-04-03T04:57:32.245Z,2.40
2023-04-03T05:00:01.735Z,2.40
2023-04-03T05:02:29.714Z,2.40
2023-04-03T05:04:57.644Z,2.40
2023-04-03T05:07:26.012Z,2.40
2023-04-03T05:09:53.880Z,2.30
2023-04-03T05:12:22.144Z,2.30
2023-04-03T05:14:50.034Z,2.30
2023-04-03T05:17:19.291Z,2.30
2023-04-03T05:19:47.247Z,2.30
2023-04-03T05:22:16.132Z,2.30
2023-04-03T05:24:44.319Z,2.30
2023-04-03T05:27:12.221Z,2.30
2023-04-03T05:29:40.147Z,2.30
2023-04-03T05:32:08.075Z,2.30
2023-04-03T05:34:37.341Z,2.30
2023-04-03T05:37:06.043Z,2.40
2023-04-03T05:39:34.772Z,2.40
2023-04-03T05:42:02.681Z,2.50
2023-04-03T05:44:30.593Z,2.50
2023-04-03T05:46:58.452Z,2.50
2023-04-03T05:49:26.428Z,2.50
2023-04-03T05:51:57.179Z,2.60
2023-04-03T05:54:26.776Z,2.60
2023-04-03T05:56:55.238Z,2.60
2023-04-03T05:59:23.614Z,2.70
2023-04-03T06:01:51.842Z,2.70
2023-04-03T06:04:20.236Z,2.70
2023-04-03T06:06:50.423Z,2.80
2023-04-03T06:09:21.189Z,2.80
2023-04-03T06:11:49.274Z,2.90
2023-04-03T06:14:17.198Z,2.90
2023-04-03T06:16:45.588Z,2.90
2023-04-03T06:19:14.205Z,3.00
2023-04-03T06:21:42.156Z,3.00
2023-04-03T06:24:14.463Z,3.10
2023-04-03T06:26:43.868Z,3.10
2023-04-03T06:29:12.196Z,3.10
2023-04-03T06:31:40.738Z,3.20
2023-04-03T06:34:09.789Z,3.20
2023-04-03T06:36:37.981Z,3.30
2023-04-03T06:39:06.038Z,3.30
2023-04-03T06:41:35.324Z,3.30
2023-04-03T06:44:05.536Z,3.40
2023-04-03T06:46:33.681Z,3.40
2023-04-03T06:49:01.597Z,3.40
2023-04-03T06:51:31.060Z,3.50
2023-04-03T06:54:00.515Z,3.50
2023-04-03T06:56:29.399Z,3.60
2023-04-03T06:58:58.606Z,3.60
2023-04-03T07:01:29.832Z,3.70
2023-04-03T07:03:58.307Z,3.70
2023-04-03T07:06:27.733Z,3.80
2023-04-03T07:08:56.469Z,3.80
2023-04-03T07:11:24.679Z,3.90
2023-04-03T07:13:53.063Z,3.90
2023-04-03T07:16:21.207Z,4.00
2023-04-03T07:18:50.488Z,4.10
2023-04-03T07:21:18.466Z,4.10
2023-04-03T07:23:46.640Z,4.20
2023-04-03T07:26:14.672Z,4.20
2023-04-03T07:28:42.939Z,4.30
2023-04-03T07:31:14.391Z,4.40
2023-04-03T07:33:45.113Z,4.40
2023-04-03T07:36:19.643Z,4.40
2023-04-03T07:38:47.661Z,4.50
2023-04-03T07:41:18.476Z,4.50
2023-04-03T07:43:47.475Z,4.60
2023-04-03T07:46:15.465Z,4.60
2023-04-03T07:48:43.397Z,4.70
2023-04-03T07:51:12.196Z,4.70
2023-04-03T07:53:41.508Z,4.80
2023-04-03T07:56:10.411Z,4.80
2023-04-03T07:58:39.161Z,4.90
2023-04-03T08:01:07.213Z,5.00
2023-04-03T08:03:35.280Z,5.00
2023-04-03T08:06:09.124Z,5.10
2023-04-03T08:08:41.336Z,5.10
2023-04-03T08:11:09.436Z,5.20
2023-04-03T08:13:37.476Z,5.30
2023-04-03T08:16:13.849Z,5.40
2023-04-03T08:18:41.896Z,5.50
2023-04-03T08:21:11.633Z,5.60
2023-04-03T08:23:42.005Z,5.60
2023-04-03T08:26:11.663Z,5.70
2023-04-03T08:28:40.630Z,5.80
2023-04-03T08:31:11.965Z,5.80
2023-04-03T08:33:40.770Z,5.80
2023-04-03T08:36:17.491Z,5.90
2023-04-03T08:38:46.888Z,6.00
2023-04-03T08:41:21.918Z,6.10
2023-04-03T08:44:10.038Z,6.20
2023-04-03T08:46:48.902Z,6.30
2023-04-03T08:49:23.541Z,6.30
2023-04-03T08:51:52.804Z,6.40
2023-04-03T08:54:31.904Z,6.50
2023-04-03T08:57:04.085Z,6.60
2023-04-03T08:59:35.840Z,6.60
2023-04-03T09:02:17.194Z,6.60
2023-04-03T09:04:45.484Z,6.70
2023-04-03T09:07:23.543Z,6.70
2023-04-03T09:09:54.045Z,6.80
2023-04-03T09:12:27.667Z,6.90
2023-04-03T09:15:03.431Z,7.00
2023-04-03T09:17:43.004Z,7.20
2023-04-03T09:20:21.482Z,7.30
2023-04-03T09:22:52.982Z,7.50
2023-04-03T09:25:25.372Z,7.60
2023-04-03T09:27:53.974Z,7.80
2023-04-03T09:30:24.448Z,7.90
2023-04-03T09:32:54.027Z,8.20
2023-04-03T09:35:32.709Z,8.60
2023-04-03T09:38:19.085Z,9.30
2023-04-03T09:40:50.704Z,10.20
2023-04-03T09:43:37.014Z,11.30
2023-04-03T09:46:36.324Z,13.00
2023-04-03T09:49:09.359Z,15.40
2023-04-03T09:51:38.201Z,17.50
2023-04-03T09:54:28.760Z,19.80
2023-04-03T09:57:01.979Z,22.20
2023-04-03T09:59:30.004Z,24.10
2023-04-03T10:02:04.018Z,25.80
2023-04-03T10:04:40.919Z,26.80
2023-04-03T10:07:31.649Z,27.80
2023-04-03T10:10:00.966Z,28.80
2023-04-03T10:12:30.858Z,29.20
2023-04-03T10:14:59.930Z,29.60
2023-04-03T10:17:39.205Z,30.40
2023-04-03T10:20:26.026Z,31.00
2023-04-03T10:23:04.058Z,31.50
2023-04-03T10:25:39.256Z,30.90
2023-04-03T10:28:14.746Z,30.60
2023-04-03T10:30:52.389Z,30.80
2023-04-03T10:33:38.794Z,30.70
2023-04-03T10:36:18.860Z,30.30
2023-04-03T10:38:57.711Z,29.60
2023-04-03T10:41:34.803Z,29.90
2023-04-03T10:44:16.714Z,30.20
2023-04-03T10:46:47.665Z,29.80
2023-04-03T10:49:28.176Z,29.80
2023-04-03T10:52:06.055Z,29.90
2023-04-03T10:54:38.674Z,30.20
2023-04-03T10:57:13.149Z,29.90
2023-04-03T10:59:47.908Z,29.40
2023-04-03T11:02:25.248Z,29.30
2023-04-03T11:04:58.255Z,29.80
2023-04-03T11:07:28.608Z,29.80
2023-04-03T11:10:01.161Z,29.70
2023-04-03T11:12:37.982Z,30.20
2023-04-03T11:15:13.988Z,30.70
2023-04-03T11:17:47.595Z,31.10
2023-04-03T11:20:20.504Z,31.50
2023-04-03T11:22:53.504Z,31.60
2023-04-03T11:25:24.622Z,31.60
2023-04-03T11:27:57.735Z,31.20
2023-04-03T11:30:32.376Z,30.60
2023-04-03T11:33:36.949Z,29.90
2023-04-03T11:36:19.076Z,29.10
2023-04-03T11:38:56.469Z,27.90
2023-04-03T11:41:30.085Z,26.40
2023-04-03T11:44:00.996Z,24.30
2023-04-03T11:46:55.638Z,22.10
2023-04-03T11:50:00.517Z,19.90
2023-04-03T11:53:01.347Z,18.30
2023-04-03T11:55:56.762Z,16.90
2023-04-03T11:58:27.274Z,15.90
2023-04-03T12:01:04.529Z,15.20
2023-04-03T12:04:14.926Z,14.60
2023-04-03T12:07:15.921Z,13.90
2023-04-03T12:10:30.797Z,13.50
2023-04-03T12:13:03.531Z,13.10
2023-04-03T12:15:54.872Z,12.60
2023-04-03T12:18:46.823Z,12.20
2023-04-03T12:21:19.355Z,12.00
2023-04-03T12:24:05.752Z,11.70
2023-04-03T12:26:48.233Z,11.50
2023-04-03T12:29:22.451Z,11.30
2023-04-03T12:32:03.834Z,11.30
2023-04-03T12:34:47.412Z,11.20
2023-04-03T12:37:27.704Z,11.10
2023-04-03T12:40:04.056Z,11.10
2023-04-03T12:42:55.415Z,11.20
2023-04-03T12:45:25.529Z,11.20
2023-04-03T12:47:56.083Z,11.30
2023-04-03T12:50:30.886Z,11.30
2023-04-03T12:53:03.870Z,11.40
2023-04-03T12:55:32.015Z,11.40
2023-04-03T12:58:14.907Z,11.50
2023-04-03T13:00:44.844Z,11.50
2023-04-03T13:03:25.529Z,11.40
2023-04-03T13:05:56.369Z,11.60
2023-04-03T13:08:24.334Z,11.70
2023-04-03T13:10:57.147Z,11.70
2023-04-03T13:13:27.251Z,11.90
2023-04-03T13:15:56.602Z,12.00
2023-04-03T13:18:26.711Z,12.10
2023-04-03T13:20:59.273Z,12.20
2023-04-03T13:23:27.345Z,12.30
2023-04-03T13:25:56.120Z,12.40
2023-04-03T13:28:26.016Z,12.50
2023-04-03T13:31:02.822Z,12.60
2023-04-03T13:33:33.778Z,12.70
2023-04-03T13:36:06.842Z,12.80
2023-04-03T13:38:37.435Z,12.90
2023-04-03T13:41:23.136Z,13.00
2023-04-03T13:43:53.619Z,13.10
2023-04-03T13:46:28.870Z,13.10
2023-04-03T13:48:58.259Z,13.20
2023-04-03T13:51:29.057Z,13.30
2023-04-03T13:53:59.026Z,13.40
2023-04-03T13:56:31.711Z,13.50
2023-04-03T13:59:04.621Z,13.60
2023-04-03T14:01:42.306Z,13.60
2023-04-03T14:04:18.055Z,13.60
2023-04-03T14:06:47.920Z,13.60
2023-04-03T14:09:17.890Z,13.60
2023-04-03T14:11:47.203Z,13.60
2023-04-03T14:14:17.618Z,13.60
2023-04-03T14:16:49.330Z,13.70
2023-04-03T14:19:22.819Z,13.70
2023-04-03T14:21:53.633Z,13.70
2023-04-03T14:24:22.645Z,13.70
2023-04-03T14:26:51.755Z,13.70
2023-04-03T14:29:21.384Z,13.80
2023-04-03T14:31:55.407Z,13.70
2023-04-03T14:34:28.656Z,13.70
2023-04-03T14:36:58.003Z,13.70
2023-04-03T14:39:25.911Z,13.70
2023-04-03T14:41:53.821Z,13.70
2023-04-03T14:44:21.913Z,13.70
2023-04-03T14:46:56.851Z,13.80
2023-04-03T14:49:28.917Z,13.80
2023-04-03T14:51:59.111Z,13.70
2023-04-03T14:54:28.801Z,13.70
2023-04-03T14:56:59.687Z,13.60
2023-04-03T14:59:28.565Z,13.50
2023-04-03T15:01:56.596Z,13.50
2023-04-03T15:04:24.638Z,13.50
2023-04-03T15:06:53.962Z,13.60
2023-04-03T15:09:26.501Z,13.60
2023-04-03T15:11:56.397Z,13.60
2023-04-03T15:14:36.288Z,13.60
2023-04-03T15:17:06.495Z,13.60
2023-04-03T15:19:39.661Z,13.60
2023-04-03T15:22:08.367Z,13.60
2023-04-03T15:24:37.625Z,13.50
2023-04-03T15:27:05.634Z,13.60
2023-04-03T15:29:33.502Z,13.60
2023-04-03T15:32:01.565Z,13.60
2023-04-03T15:34:30.213Z,13.60
2023-04-03T15:36:58.136Z,13.60
2023-04-03T15:39:27.294Z,13.60
2023-04-03T15:42:00.595Z,13.60
2023-04-03T15:44:28.536Z,13.50
2023-04-03T15:46:56.495Z,13.60
2023-04-03T15:49:24.696Z,13.50
2023-04-03T15:51:52.610Z,13.40
2023-04-03T15:54:20.830Z,13.30
2023-04-03T15:56:50.264Z,13.00
2023-04-03T15:59:19.582Z,13.00
2023-04-03T16:01:48.007Z,12.80
2023-04-03T16:04:17.962Z,12.60
2023-04-03T16:06:46.765Z,12.50
2023-04-03T16:09:14.641Z,12.40
2023-04-03T16:11:42.612Z,12.30
2023-04-03T16:14:10.826Z,12.20
2023-04-03T16:16:43.695Z,12.10
2023-04-03T16:19:12.224Z,12.10
2023-04-03T16:21:40.249Z,12.00
2023-04-03T16:24:08.781Z,11.90
2023-04-03T16:26:36.739Z,11.80
2023-04-03T16:29:04.698Z,11.70
2023-04-03T16:31:35.157Z,11.60
2023-04-03T16:34:04.426Z,11.60
2023-04-03T16:36:33.429Z,11.50
2023-04-03T16:39:01.434Z,11.40
2023-04-03T16:41:29.357Z,11.40
2023-04-03T16:43:57.215Z,11.30
2023-04-03T16:46:25.190Z,11.20
2023-04-03T16:48:53.097Z,11.20
2023-04-03T16:51:22.336Z,11.10
2023-04-03T16:53:50.217Z,11.00
2023-04-03T16:56:18.288Z,11.00
2023-04-03T16:58:46.403Z,10.90
2023-04-03T17:01:16.357Z,10.90
2023-04-03T17:03:44.321Z,10.80
2023-04-03T17:06:16.847Z,10.70
2023-04-03T17:08:47.837Z,10.60
2023-04-03T17:11:16.495Z,10.50
2023-04-03T17:13:44.462Z,10.40
2023-04-03T17:16:16.165Z,10.20
2023-04-03T17:18:44.754Z,10.20
2023-04-03T17:21:16.219Z,10.10
2023-04-03T17:23:50.078Z,10.00
2023-04-03T17:26:18.107Z,9.90
2023-04-03T17:28:46.857Z,9.90
2023-04-03T17:31:14.996Z,9.80
2023-04-03T17:33:42.924Z,9.70
2023-04-03T17:36:11.106Z,9.70
2023-04-03T17:38:39.076Z,9.60
2023-04-03T17:41:10.626Z,9.50
2023-04-03T17:43:38.539Z,9.40
2023-04-03T17:46:09.115Z,9.30
2023-04-03T17:48:39.016Z,9.20
2023-04-03T17:51:07.530Z,9.10
2023-04-03T17:53:35.538Z,9.00
2023-04-03T17:56:09.389Z,9.00
2023-04-03T17:58:37.405Z,8.90
2023-04-03T18:01:14.159Z,8.80
2023-04-03T18:03:42.210Z,8.70
2023-04-03T18:06:13.501Z,8.70
2023-04-03T18:08:44.852Z,8.60
2023-04-03T18:11:15.427Z,8.50
2023-04-03T18:13:44.719Z,8.50
2023-04-03T18:16:14.005Z,8.40
2023-04-03T18:18:42.661Z,8.30
2023-04-03T18:21:13.104Z,8.20
2023-04-03T18:23:45.794Z,8.20
2023-04-03T18:26:18.174Z,8.10
2023-04-03T18:28:53.707Z,8.10
2023-04-03T18:31:22.773Z,8.00
2023-04-03T18:33:53.904Z,7.90
2023-04-03T18:36:22.035Z,7.90
2023-04-03T18:38:49.970Z,7.80
2023-04-03T18:41:22.494Z,7.70
2023-04-03T18:43:50.693Z,7.70
2023-04-03T18:46:19.801Z,7.60
2023-04-03T18:48:47.753Z,7.60
2023-04-03T18:51:16.018Z,7.50
2023-04-03T18:53:44.134Z,7.50
2023-04-03T18:56:12.017Z,7.40
2023-04-03T18:58:41.240Z,7.40
2023-04-03T19:01:09.463Z,7.30
2023-04-03T19:03:38.570Z,7.30
2023-04-03T19:06:06.681Z,7.20
2023-04-03T19:08:34.902Z,7.20
2023-04-03T19:11:02.924Z,7.20
2023-04-03T19:13:32.472Z,7.10
2023-04-03T19:16:01.750Z,7.10
2023-04-03T19:18:30.400Z,7.00
2023-04-03T19:20:59.929Z,7.00
2023-04-03T19:23:28.280Z,7.00
2023-04-03T19:26:00.827Z,6.90
2023-04-03T19:28:29.374Z,6.90
2023-04-03T19:30:57.957Z,6.80
2023-04-03T19:33:28.345Z,6.80
2023-04-03T19:35:56.498Z,6.80
2023-04-03T19:38:24.376Z,6.70
2023-04-03T19:40:52.311Z,6.70
2023-04-03T19:43:20.228Z,6.60
2023-04-03T19:45:48.854Z,6.60
2023-04-03T19:48:16.972Z,6.60
2023-04-03T19:50:46.364Z,6.50
2023-04-03T19:53:19.237Z,6.50
2023-04-03T19:55:47.302Z,6.40
2023-04-03T19:58:15.383Z,6.40
2023-04-03T20:00:43.422Z,6.40
2023-04-03T20:03:11.567Z,6.30
2023-04-03T20:05:39.495Z,6.30
2023-04-03T20:08:08.835Z,6.20
2023-04-03T20:10:40.237Z,6.20
2023-04-03T20:13:10.590Z,6.10
2023-04-03T20:15:41.150Z,6.10
2023-04-03T20:18:09.803Z,6.10
2023-04-03T20:20:41.798Z,6.10
2023-04-03T20:23:12.857Z,6.00
2023-04-03T20:28:15.698Z,6.00
2023-04-03T20:30:46.114Z,5.90
2023-04-03T20:33:14.405Z,5.90
2023-04-03T20:35:43.125Z,5.80
2023-04-03T20:38:12.446Z,5.80
2023-04-03T20:40:40.879Z,5.80
2023-04-03T20:43:09.408Z,5.70
2023-04-03T20:45:37.391Z,5.70
2023-04-03T20:48:05.888Z,5.60
2023-04-03T20:50:34.880Z,5.60
2023-04-03T20:53:03.274Z,5.70
2023-04-03T20:55:32.743Z,5.70
2023-04-03T20:58:02.121Z,5.60
2023-04-03T21:00:32.154Z,5.60
2023-04-03T21:03:01.374Z,5.60
2023-04-03T21:05:30.697Z,5.50
2023-04-03T21:08:36.178Z,5.50
2023-04-03T21:11:41.332Z,5.40
2023-04-03T21:14:48.459Z,5.40
2023-04-03T21:17:16.334Z,5.30
2023-04-03T21:19:46.854Z,5.20
2023-04-03T21:22:16.041Z,5.20
2023-04-03T21:24:45.166Z,5.20
2023-04-03T21:27:13.150Z,5.10
2023-04-03T21:29:41.542Z,5.10
2023-04-03T21:32:09.465Z,5.10
2023-04-03T21:34:37.487Z,5.00
2023-04-03T21:37:08.627Z,5.00
2023-04-03T21:39:36.644Z,4.90
2023-04-03T21:42:04.763Z,4.90
2023-04-03T21:44:32.688Z,4.90
2023-04-03T21:47:00.969Z,4.80
2023-04-03T21:49:29.682Z,4.80
2023-04-03T21:51:57.641Z,4.80
2023-04-03T21:54:27.663Z,4.80
2023-04-03T21:56:55.605Z,4.70
2023-04-03T21:59:23.601Z,4.70
2023-04-03T22:01:51.732Z,4.70
2023-04-03T22:04:19.709Z,4.60
2023-04-03T22:06:47.574Z,4.60
2023-04-03T22:09:16.081Z,4.60
2023-04-03T22:11:45.898Z,4.60
2023-04-03T22:14:14.031Z,4.50
2023-04-03T22:16:41.956Z,4.50
2023-04-03T22:19:09.936Z,4.40
2023-04-03T22:21:37.888Z,4.40
2023-04-03T22:24:06.320Z,4.40
2023-04-03T22:26:34.466Z,4.40
2023-04-03T22:29:06.246Z,4.30
2023-04-03T22:31:34.646Z,4.30
2023-04-03T22:34:04.165Z,4.30
2023-04-03T22:36:32.166Z,4.30
2023-04-03T22:39:00.256Z,4.20
2023-04-03T22:41:28.147Z,4.20
2023-04-03T22:43:57.809Z,4.10
2023-04-03T22:46:28.155Z,4.10
2023-04-03T22:48:56.246Z,4.10
2023-04-03T22:51:24.119Z,4.10
2023-04-03T22:53:51.977Z,4.00
2023-04-03T22:56:19.897Z,4.10
2023-04-03T22:58:48.338Z,4.00
2023-04-03T23:01:17.301Z,4.00
2023-04-03T23:03:46.671Z,4.00
2023-04-03T23:06:15.733Z,4.00
2023-04-03T23:08:43.716Z,3.90
2023-04-03T23:11:11.695Z,3.90
2023-04-03T23:13:39.697Z,3.90
2023-04-03T23:16:08.138Z,3.90
2023-04-03T23:18:39.670Z,3.80
2023-04-03T23:21:09.401Z,3.80
2023-04-03T23:23:37.540Z,3.80
2023-04-03T23:26:06.063Z,3.70
2023-04-03T23:28:34.034Z,3.70
2023-04-03T23:31:03.234Z,3.70
2023-04-03T23:33:32.177Z,3.70
2023-04-03T23:36:01.249Z,3.60
2023-04-03T23:38:30.695Z,3.60
2023-04-03T23:40:58.538Z,3.60
2023-04-03T23:43:27.673Z,3.60
2023-04-03T23:45:55.632Z,3.60
2023-04-03T23:48:23.571Z,3.50
2023-04-03T23:50:51.894Z,3.50
2023-04-03T23:53:19.911Z,3.50
2023-04-03T23:55:49.154Z,3.40
2023-04-03T23:58:17.097Z,3.40
